Flight Track Log - Related Links

Times and Time Zones

All times are in EDT time to prevent confusion due to time zone crossing. See the LBQ792 flight status page for this flight to view local times or setup timezone preferences in your user account.

Time Position Orientation Groundspeed Altitude Reporting Facility
EDT Latitude Longitude Course Direction KTS MPH feet Rate Location/Type
Thu 10:12:48 PM 43.1297 -76.1589 290° West 138 159 2,600  Level Boston Center
Thu 10:13:49 PM 43.1317 -76.2217 272° West 173 199 4,200 1,587 Climbing Boston Center
Thu 10:14:49 PM 43.1317 -76.2842 270° West 172 198 5,800 939 Climbing Boston Center
Thu 10:15:44 PM 43.1314 -76.3553 270° West 207 238 6,000 104 Climbing Boston Center
Thu 10:16:44 PM 43.1306 -76.4436 269° West 245 282 6,000  Level Boston Center
Thu 10:17:39 PM 43.1336 -76.5292 273° West 242 278 6,000  Level Boston Center
Thu 10:18:39 PM 43.1325 -76.6172 269° West 238 274 6,000  Level Boston Center
Thu 10:19:07 PM 43.1339 -76.6656 272° West 239 275 6,000  Level Cleveland Center
Thu 10:20:08 PM 43.1325 -76.7536 269° West 236 272 6,000  Level Cleveland Center
Thu 10:21:09 PM 43.1272 -76.8453 266° West 236 272 6,000  Level Cleveland Center
Thu 10:22:09 PM 43.1261 -76.9361 269° West 235 270 6,000 -248 Level Cleveland Center
Thu 10:23:10 PM 43.1203 -77.0247 265° West 238 274 5,500 -694 Descending Cleveland Center
Thu 10:24:10 PM 43.1150 -77.1189 266° West 260 299 4,600 -942 Descending Cleveland Center
Thu 10:25:11 PM 43.1158 -77.2214 271° West 254 292 3,600 -891 Descending Cleveland Center
Thu 10:26:18 PM 43.1189 -77.3264 272° West 251 289 2,700 -586 Descending Cleveland Center
Thu 10:27:24 PM 43.1258 -77.4314 275° West 227 261 2,300 -189 Descending Cleveland Center
Thu 10:28:25 PM 43.1261 -77.5111 270° West 216 249 2,300 -103 Level Cleveland Center
Thu 10:29:20 PM 43.1258 -77.5822 270° West 211 243 2,100 -626 Descending Cleveland Center
Thu 10:30:20 PM 43.1250 -77.6392 269° West 110 127 1,100 -1,000 Descending Cleveland Center
Thu 10:32:00 PM 43.1167 -77.6667 270° West  Level FlightAware Approximate
Thu 10:39:00 PM 43.1191 -77.6719 270° West  Level Estimated

Login

Don't have an account? Register now (free) for customized features, flight alerts, and more!